createdAt,value
2022-08-14T00:02:24.443Z,24.94
2022-08-14T00:04:55.124Z,24.93
2022-08-14T00:07:23.503Z,24.81
2022-08-14T00:10:01.172Z,24.78
2022-08-14T00:12:47.966Z,24.77
2022-08-14T00:15:24.687Z,24.74
2022-08-14T00:17:53.791Z,24.71
2022-08-14T00:20:30.246Z,24.64
2022-08-14T00:23:08.219Z,24.53
2022-08-14T00:25:58.662Z,24.64
2022-08-14T00:28:35.883Z,24.47
2022-08-14T00:31:07.745Z,24.45
2022-08-14T00:33:50.544Z,24.59
2022-08-14T00:36:39.174Z,24.66
2022-08-14T00:39:09.865Z,24.61
2022-08-14T00:41:39.469Z,24.52
2022-08-14T00:44:10.882Z,24.57
2022-08-14T00:46:39.011Z,24.20
2022-08-14T00:49:08.221Z,24.36
2022-08-14T00:51:41.007Z,24.44
2022-08-14T00:54:11.069Z,24.60
2022-08-14T00:56:55.108Z,24.58
2022-08-14T00:59:24.607Z,24.53
2022-08-14T01:01:53.035Z,24.39
2022-08-14T01:04:51.577Z,24.38
2022-08-14T01:07:11.799Z,24.46
2022-08-14T01:09:42.652Z,24.40
2022-08-14T01:12:13.478Z,24.21
2022-08-14T01:14:55.887Z,24.15
2022-08-14T01:17:49.831Z,24.23
2022-08-14T01:20:39.674Z,24.11
2022-08-14T01:23:15.633Z,24.29
2022-08-14T01:25:46.104Z,24.23
2022-08-14T01:28:46.730Z,24.39
2022-08-14T01:31:06.033Z,24.43
2022-08-14T01:34:00.109Z,24.10
2022-08-14T01:36:23.875Z,24.24
2022-08-14T01:38:58.444Z,24.27
2022-08-14T01:41:29.943Z,24.23
2022-08-14T01:44:02.211Z,24.19
2022-08-14T01:46:36.882Z,24.12
2022-08-14T01:49:07.559Z,24.07
2022-08-14T01:51:36.461Z,24.03
2022-08-14T01:54:09.589Z,24.05
2022-08-14T01:56:39.989Z,24.10
2022-08-14T01:59:09.621Z,24.04
2022-08-14T02:01:41.771Z,23.97
2022-08-14T02:04:40.703Z,24.11
2022-08-14T02:06:59.137Z,23.90
2022-08-14T02:09:28.522Z,23.73
2022-08-14T02:12:00.003Z,23.62
2022-08-14T02:14:32.121Z,23.39
2022-08-14T02:17:01.588Z,23.40
2022-08-14T02:19:32.396Z,23.65
2022-08-14T02:22:03.355Z,23.62
2022-08-14T02:24:39.044Z,23.52
2022-08-14T02:28:22.670Z,23.54
2022-08-14T02:30:00.684Z,23.51
2022-08-14T02:32:30.538Z,23.56
2022-08-14T02:35:10.457Z,23.60
2022-08-14T02:37:48.175Z,23.30
2022-08-14T02:40:19.139Z,23.53
2022-08-14T02:42:54.861Z,23.58
2022-08-14T02:45:33.525Z,23.75
2022-08-14T02:49:01.842Z,23.57
2022-08-14T02:51:01.029Z,23.64
2022-08-14T02:53:29.572Z,23.42
2022-08-14T02:56:02.496Z,23.41
2022-08-14T02:58:32.253Z,23.38
2022-08-14T03:01:01.240Z,23.34
2022-08-14T03:03:31.521Z,23.60
2022-08-14T03:06:01.014Z,23.78
2022-08-14T03:08:31.796Z,23.74
2022-08-14T03:11:02.611Z,23.83
2022-08-14T03:13:35.680Z,23.63
2022-08-14T03:16:09.018Z,23.52
2022-08-14T03:18:52.601Z,23.57
2022-08-14T03:21:22.871Z,23.43
2022-08-14T03:23:56.974Z,23.58
2022-08-14T03:26:30.117Z,23.67
2022-08-14T03:29:00.989Z,23.76
2022-08-14T03:31:30.510Z,23.59
2022-08-14T03:34:00.078Z,23.59
2022-08-14T03:37:38.907Z,23.50
2022-08-14T03:39:22.645Z,23.37
2022-08-14T03:41:55.102Z,23.30
2022-08-14T03:45:26.134Z,23.31
2022-08-14T03:47:15.506Z,23.02
2022-08-14T03:49:43.973Z,23.22
2022-08-14T03:52:38.284Z,23.27
2022-08-14T03:55:03.769Z,23.10
2022-08-14T03:57:37.224Z,23.07
2022-08-14T04:00:13.825Z,23.06
2022-08-14T04:02:58.885Z,23.19
2022-08-14T04:05:27.105Z,23.15
2022-08-14T04:08:08.459Z,22.94
2022-08-14T04:10:43.175Z,23.04
2022-08-14T04:13:18.395Z,23.03
2022-08-14T04:16:01.327Z,23.17
2022-08-14T04:18:32.335Z,23.04
2022-08-14T04:21:04.056Z,22.98
2022-08-14T04:23:33.762Z,22.92
2022-08-14T04:26:03.840Z,22.68
2022-08-14T04:29:06.787Z,22.81
2022-08-14T04:31:25.022Z,22.83
2022-08-14T04:34:20.925Z,22.71
2022-08-14T04:37:12.827Z,22.79
2022-08-14T04:39:58.699Z,22.80
2022-08-14T04:42:47.695Z,22.63
2022-08-14T04:45:23.706Z,22.38
2022-08-14T04:48:10.023Z,22.42
2022-08-14T04:50:44.534Z,22.35
2022-08-14T04:53:15.606Z,22.36
2022-08-14T04:55:46.004Z,22.48
2022-08-14T04:58:21.521Z,22.39
2022-08-14T05:00:52.687Z,22.84
2022-08-14T05:03:21.677Z,22.80
2022-08-14T05:05:54.663Z,22.83
2022-08-14T05:08:32.332Z,22.73
2022-08-14T05:11:13.424Z,22.69
2022-08-14T05:16:33.477Z,22.84
2022-08-14T05:19:24.683Z,22.78
2022-08-14T05:21:56.199Z,22.72
2022-08-14T05:24:26.636Z,22.64
2022-08-14T05:26:55.334Z,22.82
2022-08-14T05:29:23.623Z,22.49
2022-08-14T05:31:58.081Z,22.74
2022-08-14T05:34:31.487Z,22.71
2022-08-14T05:37:02.820Z,22.61
2022-08-14T05:39:31.703Z,22.55
2022-08-14T05:42:00.677Z,22.77
2022-08-14T05:44:30.767Z,22.73
2022-08-14T05:47:01.118Z,22.62
2022-08-14T05:49:33.272Z,22.73
2022-08-14T05:52:02.523Z,22.81
2022-08-14T05:54:35.389Z,22.81
2022-08-14T05:57:04.579Z,22.71
2022-08-14T05:59:39.043Z,22.75
2022-08-14T06:02:10.336Z,22.67
2022-08-14T06:04:38.882Z,22.67
2022-08-14T06:07:07.108Z,22.70
2022-08-14T06:09:40.847Z,22.50
2022-08-14T06:12:10.034Z,22.74
2022-08-14T06:14:38.711Z,23.02
2022-08-14T06:17:08.183Z,23.11
2022-08-14T06:19:37.656Z,23.18
2022-08-14T06:22:06.183Z,23.45
2022-08-14T06:24:36.893Z,23.41
2022-08-14T06:27:12.112Z,23.57
2022-08-14T06:29:40.538Z,23.69
2022-08-14T06:32:52.419Z,23.72
2022-08-14T06:35:09.214Z,23.69
2022-08-14T06:37:46.833Z,23.84
2022-08-14T06:40:27.345Z,23.91
2022-08-14T06:43:00.328Z,23.96
2022-08-14T06:45:32.108Z,24.02
2022-08-14T06:48:02.452Z,24.23
2022-08-14T06:50:35.593Z,24.31
2022-08-14T06:53:03.827Z,24.39
2022-08-14T06:55:57.918Z,24.51
2022-08-14T06:58:29.224Z,24.73
2022-08-14T07:01:19.399Z,24.69
2022-08-14T07:04:12.857Z,24.58
2022-08-14T07:07:00.501Z,24.84
2022-08-14T07:09:50.718Z,24.87
2022-08-14T07:12:52.231Z,25.01
2022-08-14T07:15:13.592Z,25.29
2022-08-14T07:17:51.999Z,25.41
2022-08-14T07:20:30.596Z,25.57
2022-08-14T07:23:08.422Z,25.57
2022-08-14T07:25:38.387Z,25.79
2022-08-14T07:28:35.854Z,25.87
2022-08-14T07:31:12.875Z,25.77
2022-08-14T07:33:43.586Z,25.90
2022-08-14T07:39:02.795Z,25.99
2022-08-14T07:41:33.767Z,26.02
2022-08-14T07:44:32.778Z,26.06
2022-08-14T07:48:48.827Z,26.19
2022-08-14T07:50:52.579Z,26.12
2022-08-14T07:56:59.956Z,26.40
2022-08-14T07:59:53.877Z,26.35
2022-08-14T08:05:42.051Z,26.67
2022-08-14T08:14:56.427Z,26.81
2022-08-14T08:17:34.774Z,26.90
2022-08-14T08:20:11.682Z,26.93
2022-08-14T08:22:43.201Z,26.95
2022-08-14T08:25:13.771Z,27.08
2022-08-14T08:28:08.715Z,27.07
2022-08-14T08:31:03.999Z,27.22
2022-08-14T08:33:57.427Z,27.18
2022-08-14T08:36:25.732Z,27.23
2022-08-14T08:39:15.335Z,27.44
2022-08-14T08:42:13.585Z,27.56
2022-08-14T08:44:43.093Z,27.92
2022-08-14T08:47:13.426Z,28.11
2022-08-14T08:49:48.495Z,28.04
2022-08-14T08:52:30.881Z,28.21
2022-08-14T08:55:00.858Z,27.61
2022-08-14T08:57:36.059Z,28.35
2022-08-14T09:00:25.554Z,28.78
2022-08-14T09:03:13.480Z,29.03
2022-08-14T09:05:53.888Z,29.18
2022-08-14T09:08:32.838Z,29.16
2022-08-14T09:11:02.815Z,28.95
2022-08-14T09:13:48.651Z,29.15
2022-08-14T09:16:21.725Z,29.38
2022-08-14T09:19:32.986Z,29.71
2022-08-14T09:22:34.958Z,29.71
2022-08-14T09:24:55.377Z,29.85
2022-08-14T09:27:39.935Z,30.04
2022-08-14T09:30:33.623Z,30.20
2022-08-14T09:33:33.514Z,30.31
2022-08-14T09:36:38.946Z,30.28
2022-08-14T09:39:34.435Z,29.74
2022-08-14T09:42:32.715Z,30.22
2022-08-14T09:45:15.356Z,30.63
2022-08-14T09:47:52.307Z,30.64
2022-08-14T09:50:34.912Z,30.65
2022-08-14T09:53:17.838Z,30.59
2022-08-14T09:56:10.858Z,30.79
2022-08-14T09:58:55.921Z,30.69
2022-08-14T10:01:26.070Z,30.80
2022-08-14T10:04:01.419Z,31.07
2022-08-14T10:06:31.809Z,31.12
2022-08-14T10:09:17.079Z,31.16
2022-08-14T10:12:01.163Z,30.20
2022-08-14T10:14:37.152Z,31.04
2022-08-14T10:17:08.573Z,31.50
2022-08-14T10:19:37.311Z,31.68
2022-08-14T10:23:13.254Z,31.74
2022-08-14T10:25:16.640Z,30.66
2022-08-14T10:27:46.785Z,30.28
2022-08-14T10:30:22.216Z,30.67
2022-08-14T10:32:52.442Z,31.91
2022-08-14T10:35:23.012Z,32.13
2022-08-14T10:37:52.783Z,32.28
2022-08-14T10:40:43.462Z,32.41
2022-08-14T10:43:23.089Z,32.65
2022-08-14T10:47:37.206Z,32.77
2022-08-14T10:49:03.853Z,32.54
2022-08-14T10:51:39.828Z,32.61
2022-08-14T10:54:37.298Z,32.80
2022-08-14T10:57:23.990Z,31.91
2022-08-14T11:00:00.311Z,32.06
2022-08-14T11:02:50.294Z,32.22
2022-08-14T11:05:27.114Z,33.04
2022-08-14T11:08:00.434Z,32.76
2022-08-14T11:10:45.088Z,32.10
2022-08-14T11:13:24.024Z,30.58
2022-08-14T11:15:57.573Z,32.58
2022-08-14T11:18:32.528Z,32.45
2022-08-14T11:21:14.750Z,32.99
2022-08-14T11:23:53.724Z,33.26
2022-08-14T11:26:30.153Z,32.33
2022-08-14T11:29:08.899Z,33.64
2022-08-14T11:31:41.671Z,33.64
2022-08-14T11:34:31.930Z,33.40
2022-08-14T11:37:35.220Z,32.70
2022-08-14T11:40:19.955Z,32.93
2022-08-14T11:42:59.717Z,33.30
2022-08-14T11:45:37.079Z,32.44
2022-08-14T11:49:02.107Z,33.05
2022-08-14T11:51:24.225Z,33.16
2022-08-14T11:53:54.263Z,32.82
2022-08-14T11:56:25.664Z,32.90
2022-08-14T11:58:57.672Z,33.06
2022-08-14T12:01:33.037Z,32.76
2022-08-14T12:04:31.869Z,32.58
2022-08-14T12:07:01.227Z,32.73
2022-08-14T12:09:34.577Z,32.52
2022-08-14T12:12:03.300Z,32.63
2022-08-14T12:14:35.349Z,32.05
2022-08-14T12:17:12.238Z,32.43
2022-08-14T12:19:50.674Z,32.60
2022-08-14T12:22:29.643Z,32.45
2022-08-14T12:24:58.480Z,32.33
2022-08-14T12:27:41.597Z,32.20
2022-08-14T12:30:11.393Z,32.67
2022-08-14T12:32:43.320Z,32.47
2022-08-14T12:35:12.730Z,31.84
2022-08-14T12:37:40.937Z,32.25
2022-08-14T12:40:19.465Z,32.26
2022-08-14T12:42:53.650Z,31.89
2022-08-14T12:45:31.681Z,32.10
2022-08-14T12:48:21.832Z,32.19
2022-08-14T12:50:52.525Z,31.89
2022-08-14T12:53:22.716Z,32.35
2022-08-14T12:56:21.478Z,32.04
2022-08-14T12:58:52.499Z,31.41
2022-08-14T13:01:22.252Z,31.70
2022-08-14T13:03:52.756Z,31.53
2022-08-14T13:06:23.286Z,32.02
2022-08-14T13:08:53.649Z,32.46
2022-08-14T13:11:31.314Z,32.34
2022-08-14T13:14:01.012Z,32.30
2022-08-14T13:16:37.988Z,32.33
2022-08-14T13:19:11.270Z,32.40
2022-08-14T13:22:05.805Z,32.48
2022-08-14T13:24:33.533Z,32.75
2022-08-14T13:27:05.041Z,32.00
2022-08-14T13:29:40.898Z,32.25
2022-08-14T13:32:16.416Z,32.60
2022-08-14T13:34:52.709Z,32.64
2022-08-14T13:37:22.800Z,32.83
2022-08-14T13:39:56.566Z,32.96
2022-08-14T13:42:30.647Z,32.88
2022-08-14T13:45:01.640Z,32.72
2022-08-14T13:47:36.071Z,32.81
2022-08-14T13:50:07.840Z,32.61
2022-08-14T13:52:59.004Z,32.98
2022-08-14T13:55:34.653Z,32.95
2022-08-14T13:58:06.494Z,32.94
2022-08-14T14:00:55.673Z,33.00
2022-08-14T14:03:25.524Z,32.84
2022-08-14T14:06:00.417Z,32.57
2022-08-14T14:08:42.974Z,32.43
2022-08-14T14:11:17.427Z,32.73
2022-08-14T14:13:51.099Z,32.44
2022-08-14T14:16:26.109Z,32.71
2022-08-14T14:19:06.862Z,33.06
2022-08-14T14:21:40.760Z,32.97
2022-08-14T14:24:14.781Z,32.43
2022-08-14T14:26:47.310Z,32.81
2022-08-14T14:29:16.751Z,32.25
2022-08-14T14:31:47.804Z,32.51
2022-08-14T14:34:29.188Z,32.73
2022-08-14T14:37:03.095Z,33.12
2022-08-14T14:39:37.718Z,32.97
2022-08-14T14:42:18.196Z,32.84
2022-08-14T14:44:53.127Z,32.81
2022-08-14T14:47:25.042Z,32.92
2022-08-14T14:49:55.694Z,32.77
2022-08-14T14:52:26.875Z,32.71
2022-08-14T14:54:58.404Z,33.47
2022-08-14T14:57:35.951Z,33.87
2022-08-14T15:00:12.600Z,34.17
2022-08-14T15:02:43.045Z,34.63
2022-08-14T15:05:14.174Z,34.82
2022-08-14T15:07:54.049Z,35.13
2022-08-14T15:10:27.683Z,35.11
2022-08-14T15:13:04.509Z,35.41
2022-08-14T15:15:37.027Z,35.43
2022-08-14T15:18:36.334Z,35.69
2022-08-14T15:20:57.559Z,35.47
2022-08-14T15:23:43.476Z,34.70
2022-08-14T15:26:31.028Z,34.54
2022-08-14T15:29:04.961Z,34.78
2022-08-14T15:31:34.906Z,34.75
2022-08-14T15:34:45.968Z,34.15
2022-08-14T15:37:05.507Z,34.13
2022-08-14T15:39:38.422Z,34.23
2022-08-14T15:42:16.394Z,33.70
2022-08-14T15:44:58.061Z,33.76
2022-08-14T15:47:30.928Z,33.96
2022-08-14T15:50:00.269Z,33.52
2022-08-14T15:52:32.395Z,33.30
2022-08-14T15:55:06.913Z,33.48
2022-08-14T15:57:36.768Z,32.83
2022-08-14T16:00:43.729Z,33.47
2022-08-14T16:03:12.759Z,33.51
2022-08-14T16:05:43.944Z,33.47
2022-08-14T16:08:28.897Z,33.46
2022-08-14T16:11:00.580Z,33.78
2022-08-14T16:13:39.676Z,34.25
2022-08-14T16:16:34.769Z,34.61
2022-08-14T16:19:09.810Z,34.28
2022-08-14T16:22:00.453Z,34.35
2022-08-14T16:24:33.558Z,34.07
2022-08-14T16:27:05.205Z,34.89
2022-08-14T16:29:35.763Z,35.28
2022-08-14T16:32:33.158Z,34.50
2022-08-14T16:37:43.776Z,33.43
2022-08-14T16:40:13.692Z,33.35
2022-08-14T16:40:25.408Z,34.14
2022-08-14T16:43:04.375Z,33.44
2022-08-14T16:45:34.480Z,33.55
2022-08-14T16:48:55.534Z,33.28
2022-08-14T16:51:00.837Z,33.02
2022-08-14T16:53:41.828Z,33.35
2022-08-14T16:56:23.041Z,34.29
2022-08-14T16:59:09.615Z,34.23
2022-08-14T17:01:42.218Z,33.47
2022-08-14T17:04:15.040Z,33.79
2022-08-14T17:06:55.051Z,33.45
2022-08-14T17:09:48.741Z,33.76
2022-08-14T17:12:29.108Z,34.47
2022-08-14T17:15:10.134Z,35.11
2022-08-14T17:17:57.680Z,35.71
2022-08-14T17:20:54.635Z,35.91
2022-08-14T17:23:29.877Z,35.49
2022-08-14T17:25:58.703Z,34.43
2022-08-14T17:28:51.329Z,33.77
2022-08-14T17:31:57.934Z,33.44
2022-08-14T17:34:26.202Z,33.18
2022-08-14T17:37:01.791Z,32.60
2022-08-14T17:39:39.954Z,32.46
2022-08-14T17:42:13.284Z,32.18
2022-08-14T17:44:45.573Z,31.96
2022-08-14T17:47:20.519Z,31.75
2022-08-14T17:49:53.797Z,31.86
2022-08-14T17:52:34.516Z,31.56
2022-08-14T17:55:06.564Z,31.63
2022-08-14T17:57:41.106Z,31.63
2022-08-14T18:00:15.080Z,31.56
2022-08-14T18:02:51.281Z,31.34
2022-08-14T18:05:23.306Z,31.00
2022-08-14T18:07:59.589Z,31.11
2022-08-14T18:10:55.195Z,30.81
2022-08-14T18:13:51.400Z,30.81
2022-08-14T18:16:20.188Z,30.72
2022-08-14T18:18:56.203Z,30.64
2022-08-14T18:21:56.857Z,30.35
2022-08-14T18:24:31.649Z,30.08
2022-08-14T18:27:08.768Z,29.78
2022-08-14T18:29:43.781Z,30.17
2022-08-14T18:32:56.454Z,29.97
2022-08-14T18:35:58.695Z,29.77
2022-08-14T18:38:58.156Z,29.80
2022-08-14T18:41:36.890Z,29.60
2022-08-14T18:44:11.154Z,29.37
2022-08-14T18:47:24.424Z,29.17
2022-08-14T18:50:26.911Z,29.70
2022-08-14T18:52:57.705Z,29.24
2022-08-14T18:55:52.848Z,28.64
2022-08-14T18:58:30.379Z,28.63
2022-08-14T19:01:04.547Z,28.74
2022-08-14T19:03:52.643Z,28.83
2022-08-14T19:06:21.082Z,28.71
2022-08-14T19:08:51.354Z,28.71
2022-08-14T19:11:50.502Z,28.79
2022-08-14T19:14:48.408Z,28.57
2022-08-14T19:17:42.697Z,28.46
2022-08-14T19:20:11.995Z,28.35
2022-08-14T19:22:41.620Z,28.26
2022-08-14T19:25:13.896Z,27.88
2022-08-14T19:27:46.448Z,27.89
2022-08-14T19:30:23.365Z,27.67
2022-08-14T19:32:57.036Z,27.65
2022-08-14T19:35:55.037Z,27.86
2022-08-14T19:39:07.351Z,27.69
2022-08-14T19:41:37.943Z,27.89
2022-08-14T19:44:10.916Z,27.44
2022-08-14T19:47:00.416Z,27.46
2022-08-14T19:50:09.075Z,27.53
2022-08-14T19:52:22.444Z,27.60
2022-08-14T19:54:51.397Z,27.44
2022-08-14T19:57:23.751Z,27.26
2022-08-14T20:00:04.486Z,27.37
2022-08-14T20:02:37.613Z,27.18
2022-08-14T20:05:08.229Z,27.39
2022-08-14T20:07:59.789Z,27.44
2022-08-14T20:11:06.879Z,27.44
2022-08-14T20:13:32.762Z,27.37
2022-08-14T20:16:12.014Z,27.34
2022-08-14T20:18:54.174Z,27.04
2022-08-14T20:21:34.335Z,27.15
2022-08-14T20:24:30.453Z,26.98
2022-08-14T20:27:38.910Z,26.82
2022-08-14T20:30:33.861Z,26.93
2022-08-14T20:33:07.810Z,26.92
2022-08-14T20:35:47.621Z,26.94
2022-08-14T20:39:04.160Z,26.76
2022-08-14T20:41:13.785Z,26.60
2022-08-14T20:44:06.506Z,26.79
2022-08-14T20:46:39.381Z,26.45
2022-08-14T20:49:16.171Z,26.46
2022-08-14T20:51:58.668Z,26.86
2022-08-14T20:54:50.535Z,26.53
2022-08-14T20:57:20.180Z,26.60
2022-08-14T20:59:53.711Z,26.47
2022-08-14T21:02:38.724Z,26.48
2022-08-14T21:05:20.216Z,26.44
2022-08-14T21:07:50.266Z,26.52
2022-08-14T21:10:36.278Z,26.31
2022-08-14T21:14:09.337Z,26.36
2022-08-14T21:15:57.523Z,26.57
2022-08-14T21:18:31.649Z,26.59
2022-08-14T21:27:59.094Z,25.98
2022-08-14T21:30:51.566Z,26.01
2022-08-14T21:33:21.846Z,26.54
2022-08-14T21:35:54.964Z,26.20
2022-08-14T21:38:29.519Z,26.13
2022-08-14T21:41:41.364Z,26.41
2022-08-14T21:44:18.287Z,25.76
2022-08-14T21:46:53.514Z,25.94
2022-08-14T21:49:24.250Z,25.95
2022-08-14T21:52:48.880Z,26.29
2022-08-14T21:54:49.537Z,26.30
2022-08-14T21:58:45.937Z,26.41
2022-08-14T22:00:35.346Z,26.04
2022-08-14T22:03:09.279Z,26.07
2022-08-14T22:05:38.945Z,26.28
2022-08-14T22:08:14.143Z,26.20
2022-08-14T22:11:11.935Z,25.79
2022-08-14T22:13:46.419Z,25.92
2022-08-14T22:17:13.060Z,25.64
2022-08-14T22:19:54.954Z,25.85
2022-08-14T22:23:26.258Z,25.81
2022-08-14T22:25:57.241Z,25.60
2022-08-14T22:28:32.644Z,25.52
2022-08-14T22:31:10.386Z,25.78
2022-08-14T22:33:49.955Z,25.58
2022-08-14T22:36:45.310Z,25.66
2022-08-14T22:39:17.841Z,25.69
2022-08-14T22:41:55.842Z,25.41
2022-08-14T22:44:30.231Z,25.42
2022-08-14T22:47:00.299Z,25.50
2022-08-14T22:50:30.670Z,25.32
2022-08-14T22:52:32.840Z,25.32
2022-08-14T22:55:14.288Z,25.07
2022-08-14T22:57:45.303Z,25.34
2022-08-14T23:00:30.044Z,25.29
2022-08-14T23:03:01.688Z,25.12
2022-08-14T23:05:38.996Z,25.14
2022-08-14T23:08:59.890Z,25.18
2022-08-14T23:11:01.122Z,24.85
2022-08-14T23:13:33.175Z,25.14
2022-08-14T23:16:01.869Z,25.16
2022-08-14T23:18:41.280Z,25.07
2022-08-14T23:21:11.224Z,24.99
2022-08-14T23:23:41.479Z,24.76
2022-08-14T23:26:48.589Z,24.93
2022-08-14T23:29:01.338Z,24.78
2022-08-14T23:31:39.619Z,24.83
2022-08-14T23:34:20.973Z,24.76
2022-08-14T23:36:53.232Z,24.44
2022-08-14T23:39:30.263Z,24.36
2022-08-14T23:42:02.174Z,24.39
2022-08-14T23:44:34.812Z,24.29
2022-08-14T23:47:10.885Z,24.31
2022-08-14T23:49:56.854Z,24.34
2022-08-14T23:53:06.402Z,24.35
2022-08-14T23:55:18.927Z,24.33
2022-08-14T23:57:57.414Z,24.30
